Time;durP1;ratioP1;P1;durP2;ratioP2;P2;SDS_P1;SDS_P2;PMS_P1;PMS_P2;Temp;Humidity;BMP_temperature;BMP_pressure;BME280_temperature;BME280_humidity;BME280_pressure;Samples;Min_cycle;Max_cycle;Signal;HPM_P1;HPM_P2
2023/05/17 00:01:41;;;;;;;12.73;4.18;;;;;;;;;;5064273;28;20064;-60
2023/05/17 00:04:08;;;;;;;14.75;4.88;;;;;;;;;;5057581;28;20146;-58
2023/05/17 00:06:34;;;;;;;13.27;3.42;;;;;;;;;;5064642;28;20049;-61
2023/05/17 00:09:01;;;;;;;14.52;4.35;;;;;;;;;;5064041;28;20103;-61
2023/05/17 00:11:28;;;;;;;11.38;4.25;;;;;;;;;;5056866;28;20053;-61
2023/05/17 00:13:54;;;;;;;9.90;3.65;;;;;;;;;;5062867;28;20055;-61
2023/05/17 00:16:21;;;;;;;16.02;4.65;;;;;;;;;;5062084;28;20063;-60
2023/05/17 00:18:47;;;;;;;6.15;3.70;;;;;;;;;;5061890;28;20052;-61
2023/05/17 00:21:13;;;;;;;10.20;3.45;;;;;;;;;;5053340;28;20053;-61
2023/05/17 00:23:40;;;;;;;12.48;3.45;;;;;;;;;;5053331;28;20045;-61
2023/05/17 00:26:06;;;;;;;13.77;3.95;;;;;;;;;;5064218;28;20068;-60
2023/05/17 00:28:33;;;;;;;13.70;5.20;;;;;;;;;;5063726;28;20064;-60
2023/05/17 00:30:59;;;;;;;19.60;4.95;;;;;;;;;;5063441;28;20057;-61
2023/05/17 00:33:25;;;;;;;15.85;4.30;;;;;;;;;;5052553;28;20054;-61
2023/05/17 00:35:52;;;;;;;10.32;3.67;;;;;;;;;;5059323;28;20510;-61
2023/05/17 00:38:18;;;;;;;12.85;4.22;;;;;;;;;;5057105;28;20059;-61
2023/05/17 00:40:45;;;;;;;11.45;3.97;;;;;;;;;;5064255;28;20144;-61
2023/05/17 00:43:11;;;;;;;11.73;3.53;;;;;;;;;;5066728;28;20994;-60
2023/05/17 00:45:38;;;;;;;16.90;4.50;;;;;;;;;;5063526;28;20136;-59
2023/05/17 00:48:04;;;;;;;5.78;2.03;;;;;;;;;;5051008;28;20088;-60
2023/05/17 00:50:31;;;;;;;10.13;3.97;;;;;;;;;;5061735;28;20057;-61
2023/05/17 00:52:57;;;;;;;7.05;2.75;;;;;;;;;;5063063;28;20142;-61
2023/05/17 00:55:23;;;;;;;11.98;3.95;;;;;;;;;;5049801;28;20062;-61
2023/05/17 00:57:50;;;;;;;9.05;2.97;;;;;;;;;;5046592;28;20053;-60
2023/05/17 01:00:17;;;;;;;9.02;2.67;;;;;;;;;;5063226;28;20049;-61
2023/05/17 01:02:43;;;;;;;3.42;2.13;;;;;;;;;;5064518;28;20061;-61
2023/05/17 01:05:10;;;;;;;2.95;1.80;;;;;;;;;;5060122;28;20056;-58
2023/05/17 01:07:37;;;;;;;3.03;1.77;;;;;;;;;;5050040;28;20055;-61
2023/05/17 01:10:04;;;;;;;1.85;1.60;;;;;;;;;;5063205;28;20049;-60
2023/05/17 01:12:42;;;;;;;3.55;2.05;;;;;;;;;;5063225;28;20162;-61
2023/05/17 01:15:15;;;;;;;4.03;2.05;;;;;;;;;;5055034;28;20057;-61
2023/05/17 01:17:48;;;;;;;2.53;1.48;;;;;;;;;;5052519;28;20541;-58
2023/05/17 01:20:19;;;;;;;5.45;2.50;;;;;;;;;;5062806;28;20073;-61
2023/05/17 01:22:57;;;;;;;6.22;2.13;;;;;;;;;;5048165;28;20111;-60
2023/05/17 01:25:43;;;;;;;3.65;1.58;;;;;;;;;;5048140;28;20071;-61
2023/05/17 01:28:10;;;;;;;6.40;2.47;;;;;;;;;;5059985;28;20060;-61
2023/05/17 01:30:37;;;;;;;3.15;1.85;;;;;;;;;;5063768;28;20123;-60
2023/05/17 01:33:04;;;;;;;5.03;1.45;;;;;;;;;;5063417;28;20057;-60
2023/05/17 01:35:31;;;;;;;6.72;1.90;;;;;;;;;;5052792;28;20053;-61
2023/05/17 01:37:57;;;;;;;6.63;2.03;;;;;;;;;;5043967;28;20057;-61
2023/05/17 01:40:24;;;;;;;2.67;1.73;;;;;;;;;;5064594;28;20053;-60
2023/05/17 01:42:56;;;;;;;1.70;1.60;;;;;;;;;;5058703;28;20058;-60
2023/05/17 01:45:23;;;;;;;5.18;2.22;;;;;;;;;;5054602;28;20064;-60
2023/05/17 01:47:56;;;;;;;3.30;1.88;;;;;;;;;;5063021;28;20104;-60
2023/05/17 01:50:23;;;;;;;1.35;1.20;;;;;;;;;;5053788;28;20057;-59
2023/05/17 01:52:52;;;;;;;2.03;1.75;;;;;;;;;;5062714;28;20045;-60
2023/05/17 01:55:26;;;;;;;6.47;1.63;;;;;;;;;;5053037;28;20108;-61
2023/05/17 01:57:54;;;;;;;4.15;2.03;;;;;;;;;;5053401;28;20464;-59
2023/05/17 02:00:21;;;;;;;4.03;2.13;;;;;;;;;;5065610;28;20049;-60
2023/05/17 02:02:47;;;;;;;5.25;2.20;;;;;;;;;;5051826;28;20111;-60
2023/05/17 02:05:14;;;;;;;6.03;2.03;;;;;;;;;;5058223;28;20071;-58
2023/05/17 02:07:40;;;;;;;4.10;2.08;;;;;;;;;;5046991;28;20301;-59
2023/05/17 02:10:07;;;;;;;3.35;2.25;;;;;;;;;;5046138;28;20128;-58
2023/05/17 02:12:33;;;;;;;7.55;2.20;;;;;;;;;;5058327;28;20051;-60
2023/05/17 02:15:00;;;;;;;2.50;1.75;;;;;;;;;;5058134;28;20057;-61
2023/05/17 02:17:26;;;;;;;4.05;1.90;;;;;;;;;;5047104;28;20100;-59
2023/05/17 02:19:53;;;;;;;3.25;1.52;;;;;;;;;;5049525;28;20123;-60
2023/05/17 02:22:19;;;;;;;10.23;2.10;;;;;;;;;;5057213;28;20107;-60
2023/05/17 02:24:47;;;;;;;7.03;2.03;;;;;;;;;;5058606;28;20084;-61
2023/05/17 02:27:13;;;;;;;6.32;3.15;;;;;;;;;;5065519;28;20374;-60
2023/05/17 02:29:39;;;;;;;6.97;2.25;;;;;;;;;;5048934;28;20161;-60
2023/05/17 02:32:06;;;;;;;3.35;1.77;;;;;;;;;;5048404;28;20675;-59
2023/05/17 02:34:32;;;;;;;2.53;1.88;;;;;;;;;;5065646;28;20131;-61
2023/05/17 02:36:58;;;;;;;2.33;1.50;;;;;;;;;;5054507;28;20510;-60
2023/05/17 02:39:25;;;;;;;3.20;1.63;;;;;;;;;;5056006;28;20594;-61
2023/05/17 02:41:51;;;;;;;3.20;1.60;;;;;;;;;;5056148;28;20107;-57
2023/05/17 02:44:18;;;;;;;11.45;2.30;;;;;;;;;;5052358;28;20482;-61
2023/05/17 02:46:44;;;;;;;5.93;2.10;;;;;;;;;;5064768;28;20045;-60
2023/05/17 02:49:11;;;;;;;3.22;2.03;;;;;;;;;;5065174;28;20057;-61
2023/05/17 02:51:37;;;;;;;2.03;1.65;;;;;;;;;;5052768;28;20057;-61
2023/05/17 02:54:03;;;;;;;7.35;1.55;;;;;;;;;;5064976;28;20057;-61
2023/05/17 02:56:30;;;;;;;2.28;1.83;;;;;;;;;;5063532;28;20568;-61
2023/05/17 02:58:56;;;;;;;5.32;2.10;;;;;;;;;;5047547;28;20154;-61
2023/05/17 03:01:23;;;;;;;2.88;2.13;;;;;;;;;;5064594;28;20064;-61
2023/05/17 03:03:49;;;;;;;2.83;2.10;;;;;;;;;;5055735;28;20060;-61
2023/05/17 03:06:15;;;;;;;3.42;1.83;;;;;;;;;;5045636;28;20057;-60
2023/05/17 03:08:42;;;;;;;4.32;2.00;;;;;;;;;;5064609;28;20084;-61
2023/05/17 03:11:08;;;;;;;5.53;2.10;;;;;;;;;;5063049;28;20132;-61
2023/05/17 03:13:34;;;;;;;5.47;2.17;;;;;;;;;;5064800;28;20045;-60
2023/05/17 03:16:01;;;;;;;3.38;2.15;;;;;;;;;;5060427;28;20080;-60
2023/05/17 03:18:27;;;;;;;3.33;1.98;;;;;;;;;;5065567;28;20053;-60
2023/05/17 03:20:54;;;;;;;6.03;1.50;;;;;;;;;;5053487;28;20049;-58
2023/05/17 03:23:20;;;;;;;2.45;1.92;;;;;;;;;;5060180;28;20048;-61
2023/05/17 03:25:46;;;;;;;2.83;1.65;;;;;;;;;;5064150;28;20203;-61
2023/05/17 03:28:13;;;;;;;5.80;2.55;;;;;;;;;;5065226;28;20106;-61
2023/05/17 03:30:39;;;;;;;5.03;1.13;;;;;;;;;;5064541;28;20136;-60
2023/05/17 03:33:06;;;;;;;5.55;1.60;;;;;;;;;;5058111;28;20476;-59
2023/05/17 03:35:32;;;;;;;9.10;1.75;;;;;;;;;;5044032;28;20135;-61
2023/05/17 03:37:59;;;;;;;3.42;2.05;;;;;;;;;;5059012;28;20056;-61
2023/05/17 03:40:25;;;;;;;2.33;1.13;;;;;;;;;;5054221;28;20129;-61
2023/05/17 03:42:52;;;;;;;1.40;0.57;;;;;;;;;;5045267;28;20058;-60
2023/05/17 03:45:19;;;;;;;2.63;1.20;;;;;;;;;;5058267;28;20049;-61
2023/05/17 03:47:45;;;;;;;1.67;1.08;;;;;;;;;;5063692;28;20096;-60
2023/05/17 03:50:12;;;;;;;4.20;1.55;;;;;;;;;;5064463;28;20656;-58
2023/05/17 03:52:40;;;;;;;1.63;0.80;;;;;;;;;;5063673;28;20145;-60
2023/05/17 03:55:08;;;;;;;4.60;1.23;;;;;;;;;;5072601;28;20414;-59
2023/05/17 03:57:34;;;;;;;0.40;0.40;;;;;;;;;;5059039;28;20054;-58
2023/05/17 04:00:00;;;;;;;3.70;0.85;;;;;;;;;;5058346;28;20446;-60
2023/05/17 04:02:27;;;;;;;0.57;0.55;;;;;;;;;;5045320;28;20625;-60
2023/05/17 04:04:53;;;;;;;4.68;1.23;;;;;;;;;;5059188;28;20053;-61
2023/05/17 04:07:20;;;;;;;3.70;1.13;;;;;;;;;;5064304;28;20088;-59
2023/05/17 04:09:46;;;;;;;6.50;1.15;;;;;;;;;;5063010;28;20049;-61
2023/05/17 04:12:12;;;;;;;2.55;0.95;;;;;;;;;;5062816;28;20053;-60
2023/05/17 04:14:39;;;;;;;7.85;1.77;;;;;;;;;;5063539;28;20080;-61
2023/05/17 04:17:05;;;;;;;3.38;1.05;;;;;;;;;;5057271;28;20487;-60
2023/05/17 04:19:32;;;;;;;5.20;1.00;;;;;;;;;;5059006;28;20059;-60
2023/05/17 04:21:59;;;;;;;5.32;1.45;;;;;;;;;;5065286;28;20863;-59
2023/05/17 04:24:25;;;;;;;1.30;0.77;;;;;;;;;;5056779;28;20421;-61
2023/05/17 04:26:52;;;;;;;2.50;0.90;;;;;;;;;;5048888;28;20123;-60
2023/05/17 04:29:18;;;;;;;1.90;1.02;;;;;;;;;;5057669;28;20148;-59
2023/05/17 04:31:47;;;;;;;3.45;2.13;;;;;;;;;;5062576;28;20049;-59
2023/05/17 04:34:14;;;;;;;7.80;1.35;;;;;;;;;;5062475;28;20095;-60
2023/05/17 04:36:40;;;;;;;2.90;0.80;;;;;;;;;;5056331;28;20088;-61
2023/05/17 04:39:07;;;;;;;2.10;0.77;;;;;;;;;;5048508;28;20056;-58
2023/05/17 04:41:33;;;;;;;0.55;0.55;;;;;;;;;;5057208;28;20056;-59
2023/05/17 04:43:59;;;;;;;3.13;1.58;;;;;;;;;;5068913;28;20140;-60
2023/05/17 04:46:26;;;;;;;4.10;0.90;;;;;;;;;;5063679;28;20056;-60
2023/05/17 04:48:54;;;;;;;2.15;1.00;;;;;;;;;;5057304;28;20057;-61
2023/05/17 04:51:21;;;;;;;0.63;0.50;;;;;;;;;;5061679;28;20052;-61
2023/05/17 04:53:47;;;;;;;0.40;0.40;;;;;;;;;;5056865;28;20053;-61
2023/05/17 04:56:14;;;;;;;0.82;0.60;;;;;;;;;;5062026;28;20057;-60
2023/05/17 04:58:40;;;;;;;5.05;1.25;;;;;;;;;;5064586;28;20577;-60
2023/05/17 05:01:07;;;;;;;6.18;1.35;;;;;;;;;;5063050;28;20052;-60
2023/05/17 05:03:33;;;;;;;5.80;1.50;;;;;;;;;;5063629;28;20049;-61
2023/05/17 05:05:59;;;;;;;3.30;0.85;;;;;;;;;;5049829;28;20072;-59
2023/05/17 05:08:27;;;;;;;2.88;0.70;;;;;;;;;;5050722;28;20212;-59
2023/05/17 05:10:53;;;;;;;1.48;0.68;;;;;;;;;;5043562;28;20137;-60
2023/05/17 05:13:20;;;;;;;4.38;1.25;;;;;;;;;;5044423;28;20499;-61
2023/05/17 05:15:46;;;;;;;3.45;1.45;;;;;;;;;;5047399;28;20053;-61
2023/05/17 05:18:13;;;;;;;4.97;0.85;;;;;;;;;;5061290;28;20582;-61
2023/05/17 05:20:39;;;;;;;2.03;0.95;;;;;;;;;;5060340;28;20498;-60
2023/05/17 05:23:06;;;;;;;5.82;0.93;;;;;;;;;;5057276;28;20092;-60
2023/05/17 05:25:33;;;;;;;3.78;1.13;;;;;;;;;;5045629;28;20835;-59
2023/05/17 05:27:59;;;;;;;10.93;1.42;;;;;;;;;;5063589;28;20081;-61
2023/05/17 05:30:25;;;;;;;0.60;0.55;;;;;;;;;;5063025;28;20046;-61
2023/05/17 05:32:52;;;;;;;3.20;1.85;;;;;;;;;;5065998;28;20127;-60
2023/05/17 05:35:18;;;;;;;0.80;0.77;;;;;;;;;;5056469;28;20060;-60
2023/05/17 05:37:45;;;;;;;6.03;1.20;;;;;;;;;;5048413;28;20054;-60
2023/05/17 05:40:11;;;;;;;0.55;0.38;;;;;;;;;;5058721;28;20534;-59
2023/05/17 05:42:38;;;;;;;2.13;1.00;;;;;;;;;;5062168;28;20115;-59
2023/05/17 05:45:04;;;;;;;8.50;1.10;;;;;;;;;;5047110;28;20077;-61
2023/05/17 05:47:31;;;;;;;0.68;0.60;;;;;;;;;;5046844;28;20061;-61
2023/05/17 05:49:57;;;;;;;0.47;0.43;;;;;;;;;;5060274;28;20045;-59
2023/05/17 05:52:24;;;;;;;4.13;1.08;;;;;;;;;;5053517;28;20140;-60
2023/05/17 05:54:50;;;;;;;3.38;1.05;;;;;;;;;;5066179;28;20082;-60
2023/05/17 05:57:16;;;;;;;2.15;0.52;;;;;;;;;;5064539;28;20049;-60
2023/05/17 05:59:42;;;;;;;7.22;0.93;;;;;;;;;;5065102;28;20517;-60
2023/05/17 06:02:09;;;;;;;2.05;0.85;;;;;;;;;;5063500;28;20123;-61
2023/05/17 06:04:35;;;;;;;0.85;0.38;;;;;;;;;;5060850;28;20119;-61
2023/05/17 06:07:11;;;;;;;0.57;0.40;;;;;;;;;;5063339;28;20057;-60
2023/05/17 06:09:37;;;;;;;2.35;0.82;;;;;;;;;;5069666;28;20049;-61
2023/05/17 06:12:04;;;;;;;0.40;0.40;;;;;;;;;;5075232;28;20082;-60
2023/05/17 06:14:30;;;;;;;4.57;0.80;;;;;;;;;;5076445;28;20526;-59
2023/05/17 06:16:57;;;;;;;4.60;1.13;;;;;;;;;;5080025;28;20548;-60
2023/05/17 06:19:23;;;;;;;7.18;1.10;;;;;;;;;;5058774;28;20087;-59
2023/05/17 06:21:50;;;;;;;2.33;0.90;;;;;;;;;;5055754;28;20138;-60
2023/05/17 06:24:17;;;;;;;1.80;0.60;;;;;;;;;;5066236;28;20617;-56
2023/05/17 06:26:43;;;;;;;0.63;0.57;;;;;;;;;;5066574;28;20137;-60
2023/05/17 06:29:09;;;;;;;1.33;0.40;;;;;;;;;;5071763;28;20128;-60
2023/05/17 06:31:36;;;;;;;0.47;0.35;;;;;;;;;;5074349;28;20060;-60
2023/05/17 06:34:02;;;;;;;1.30;0.93;;;;;;;;;;5065336;28;20148;-59
2023/05/17 06:36:29;;;;;;;0.57;0.57;;;;;;;;;;5057879;28;20054;-60
2023/05/17 06:38:55;;;;;;;1.63;0.68;;;;;;;;;;5049278;28;20057;-59
2023/05/17 06:41:22;;;;;;;0.30;0.30;;;;;;;;;;5064794;28;20503;-60
2023/05/17 06:43:48;;;;;;;5.35;1.23;;;;;;;;;;5065320;28;20584;-60
2023/05/17 06:46:14;;;;;;;1.02;0.90;;;;;;;;;;5065448;28;20140;-60
2023/05/17 06:48:41;;;;;;;3.92;0.90;;;;;;;;;;5066401;28;20525;-58
2023/05/17 06:51:08;;;;;;;2.00;0.65;;;;;;;;;;5065314;28;20076;-60
2023/05/17 06:53:34;;;;;;;7.25;0.88;;;;;;;;;;5054566;28;20053;-60
2023/05/17 06:56:00;;;;;;;1.13;0.40;;;;;;;;;;5051618;28;20115;-60
2023/05/17 06:58:27;;;;;;;4.10;1.45;;;;;;;;;;5065484;28;20550;-59
2023/05/17 07:00:53;;;;;;;3.17;0.93;;;;;;;;;;5064895;28;20134;-61
2023/05/17 07:03:20;;;;;;;14.93;1.60;;;;;;;;;;5064176;28;20049;-61
2023/05/17 07:05:46;;;;;;;16.23;1.65;;;;;;;;;;5065678;28;20053;-61
2023/05/17 07:08:14;;;;;;;3.90;0.47;;;;;;;;;;5065432;28;20212;-60
2023/05/17 07:10:40;;;;;;;0.45;0.45;;;;;;;;;;5063004;28;20144;-60
2023/05/17 07:13:07;;;;;;;5.22;0.75;;;;;;;;;;5064474;28;20110;-60
2023/05/17 07:15:33;;;;;;;1.75;0.63;;;;;;;;;;5065080;28;20080;-58
2023/05/17 07:17:59;;;;;;;0.75;0.40;;;;;;;;;;5064685;28;20053;-60
2023/05/17 07:20:26;;;;;;;0.38;0.35;;;;;;;;;;5065690;28;20063;-60
2023/05/17 07:22:52;;;;;;;1.77;0.60;;;;;;;;;;5065616;28;20049;-59
2023/05/17 07:25:20;;;;;;;0.80;0.57;;;;;;;;;;5063786;28;20418;-60
2023/05/17 07:27:46;;;;;;;2.55;1.13;;;;;;;;;;5053196;28;20057;-59
2023/05/17 07:30:13;;;;;;;8.20;1.17;;;;;;;;;;5062003;28;20050;-60
2023/05/17 07:32:39;;;;;;;1.30;1.08;;;;;;;;;;5065121;28;20055;-59
2023/05/17 07:35:06;;;;;;;2.55;0.60;;;;;;;;;;5064894;28;20033;-60
2023/05/17 07:37:32;;;;;;;3.17;0.73;;;;;;;;;;5078275;28;20067;-59
2023/05/17 07:39:59;;;;;;;1.25;0.32;;;;;;;;;;5075169;28;20474;-59
2023/05/17 07:42:25;;;;;;;2.45;0.85;;;;;;;;;;5064775;28;20142;-60
2023/05/17 07:44:51;;;;;;;7.20;1.27;;;;;;;;;;5063225;28;20119;-58
2023/05/17 07:47:18;;;;;;;1.77;0.38;;;;;;;;;;5065212;28;20088;-57
2023/05/17 07:49:44;;;;;;;2.03;0.95;;;;;;;;;;5064930;28;20131;-60
2023/05/17 07:52:11;;;;;;;0.60;0.60;;;;;;;;;;5064766;28;20547;-59
2023/05/17 07:54:38;;;;;;;3.30;1.20;;;;;;;;;;5064169;28;20049;-60
2023/05/17 07:57:04;;;;;;;2.78;0.50;;;;;;;;;;5064324;28;20048;-59
2023/05/17 07:59:30;;;;;;;0.85;0.40;;;;;;;;;;5063750;28;20083;-59
2023/05/17 08:01:57;;;;;;;2.90;0.50;;;;;;;;;;5063552;28;20053;-60
2023/05/17 08:04:23;;;;;;;0.30;0.10;;;;;;;;;;5064833;28;20115;-60
2023/05/17 08:06:50;;;;;;;2.92;0.73;;;;;;;;;;5064856;28;20057;-60
2023/05/17 08:09:16;;;;;;;0.77;0.55;;;;;;;;;;5057787;28;20650;-60
2023/05/17 08:11:44;;;;;;;2.50;0.88;;;;;;;;;;5064332;28;20053;-59
2023/05/17 08:14:12;;;;;;;2.60;0.57;;;;;;;;;;5063265;28;20057;-59
2023/05/17 08:16:39;;;;;;;3.65;1.38;;;;;;;;;;5070895;28;20064;-60
2023/05/17 08:19:05;;;;;;;4.35;1.05;;;;;;;;;;5062065;28;20080;-60
2023/05/17 08:21:31;;;;;;;2.10;0.70;;;;;;;;;;5062559;28;20079;-60
2023/05/17 08:23:58;;;;;;;2.22;0.82;;;;;;;;;;5061066;28;20114;-58
2023/05/17 08:26:26;;;;;;;1.38;0.60;;;;;;;;;;5053503;28;20525;-58
2023/05/17 08:28:52;;;;;;;2.90;0.68;;;;;;;;;;5047129;28;20136;-60
2023/05/17 08:31:21;;;;;;;0.85;0.40;;;;;;;;;;5057452;28;20058;-60
2023/05/17 08:33:47;;;;;;;1.80;0.40;;;;;;;;;;5059362;28;20937;-60
2023/05/17 08:36:15;;;;;;;0.60;0.43;;;;;;;;;;5064245;28;20550;-58
2023/05/17 08:38:41;;;;;;;1.05;0.70;;;;;;;;;;5061651;28;20114;-56
2023/05/17 08:41:08;;;;;;;1.67;0.50;;;;;;;;;;5062039;28;20064;-59
2023/05/17 08:43:34;;;;;;;2.53;0.93;;;;;;;;;;5051165;28;20169;-60
2023/05/17 08:46:02;;;;;;;1.75;0.90;;;;;;;;;;5061107;28;20060;-58
2023/05/17 08:48:35;;;;;;;1.45;0.68;;;;;;;;;;5061801;28;20112;-60
2023/05/17 08:51:02;;;;;;;3.10;0.50;;;;;;;;;;5064090;28;20127;-58
2023/05/17 08:53:28;;;;;;;2.92;1.02;;;;;;;;;;5063451;28;20159;-61
2023/05/17 08:55:59;;;;;;;4.63;1.48;;;;;;;;;;5074711;28;20893;-63
2023/05/17 08:58:28;;;;;;;2.00;0.70;;;;;;;;;;5065725;28;20052;-58
2023/05/17 09:00:55;;;;;;;0.73;0.32;;;;;;;;;;5061755;28;20524;-60
2023/05/17 09:03:22;;;;;;;0.20;0.20;;;;;;;;;;5062454;28;20080;-58
2023/05/17 09:05:51;;;;;;;2.60;0.35;;;;;;;;;;5069825;28;20060;-60
2023/05/17 09:08:20;;;;;;;2.35;0.57;;;;;;;;;;5062464;28;20517;-60
2023/05/17 09:10:46;;;;;;;0.93;0.50;;;;;;;;;;5062250;28;20100;-59
2023/05/17 09:13:13;;;;;;;4.45;0.85;;;;;;;;;;5069133;28;20059;-59
2023/05/17 09:15:43;;;;;;;0.63;0.38;;;;;;;;;;5062003;28;20891;-59
2023/05/17 09:18:11;;;;;;;2.60;0.98;;;;;;;;;;5060580;28;20053;-58
2023/05/17 09:20:38;;;;;;;2.38;0.63;;;;;;;;;;5062563;28;20053;-58
2023/05/17 09:23:09;;;;;;;0.73;0.40;;;;;;;;;;5062091;28;20131;-60
2023/05/17 09:25:36;;;;;;;4.15;1.67;;;;;;;;;;5061517;28;20049;-60
2023/05/17 09:28:08;;;;;;;1.88;0.73;;;;;;;;;;5056822;28;20057;-60
2023/05/17 09:30:38;;;;;;;2.78;0.70;;;;;;;;;;5061454;28;20106;-60
2023/05/17 09:33:09;;;;;;;2.38;0.80;;;;;;;;;;5062435;28;20534;-60
2023/05/17 09:35:37;;;;;;;0.43;0.43;;;;;;;;;;5063501;28;20053;-59
2023/05/17 09:38:07;;;;;;;2.80;1.00;;;;;;;;;;5061831;28;20060;-61
2023/05/17 09:40:41;;;;;;;0.95;0.30;;;;;;;;;;5062937;28;20057;-60
2023/05/17 09:43:08;;;;;;;0.40;0.40;;;;;;;;;;5056628;28;20053;-59
2023/05/17 09:45:35;;;;;;;3.92;1.23;;;;;;;;;;5062145;28;20064;-62
2023/05/17 09:48:12;;;;;;;3.00;0.70;;;;;;;;;;5059753;28;20771;-59
2023/05/17 09:50:42;;;;;;;4.22;0.90;;;;;;;;;;5075560;28;20052;-60
2023/05/17 09:53:29;;;;;;;2.53;0.60;;;;;;;;;;5056801;28;20055;-59
2023/05/17 09:55:57;;;;;;;3.08;0.82;;;;;;;;;;5057140;28;20946;-61
2023/05/17 09:58:24;;;;;;;2.20;0.80;;;;;;;;;;5061719;28;20059;-61
2023/05/17 10:00:54;;;;;;;5.05;1.23;;;;;;;;;;5062517;28;20764;-60
2023/05/17 10:03:21;;;;;;;3.72;0.63;;;;;;;;;;5059160;28;20130;-61
2023/05/17 10:05:49;;;;;;;2.25;0.65;;;;;;;;;;5052890;28;20057;-60
2023/05/17 10:08:16;;;;;;;2.40;0.65;;;;;;;;;;5058745;28;20045;-63
2023/05/17 10:10:43;;;;;;;1.48;0.82;;;;;;;;;;5075286;28;20511;-58
2023/05/17 10:13:10;;;;;;;0.93;0.60;;;;;;;;;;5062136;28;20063;-61
2023/05/17 10:15:38;;;;;;;2.50;1.08;;;;;;;;;;5062510;28;20053;-61
2023/05/17 10:18:06;;;;;;;4.25;1.10;;;;;;;;;;5050105;28;20061;-59
2023/05/17 10:20:33;;;;;;;1.83;0.55;;;;;;;;;;5064907;28;20049;-61
2023/05/17 10:23:02;;;;;;;2.20;0.95;;;;;;;;;;5065037;28;20152;-60
2023/05/17 10:25:29;;;;;;;2.88;0.50;;;;;;;;;;5066276;28;20053;-60
2023/05/17 10:27:56;;;;;;;5.05;1.25;;;;;;;;;;5065291;28;20055;-61
2023/05/17 10:30:24;;;;;;;1.85;0.50;;;;;;;;;;5064020;28;20048;-61
2023/05/17 10:32:51;;;;;;;1.48;0.60;;;;;;;;;;5070925;28;20056;-61
2023/05/17 10:35:18;;;;;;;1.83;0.65;;;;;;;;;;5066256;28;20821;-58
2023/05/17 10:37:45;;;;;;;2.35;0.93;;;;;;;;;;5067655;28;20057;-59
2023/05/17 10:40:16;;;;;;;1.45;0.80;;;;;;;;;;5069975;28;20609;-61
2023/05/17 10:42:45;;;;;;;0.75;0.68;;;;;;;;;;5064775;28;20501;-61
2023/05/17 10:45:12;;;;;;;1.45;1.00;;;;;;;;;;5065641;28;20134;-60
2023/05/17 10:47:40;;;;;;;3.65;0.82;;;;;;;;;;5045786;28;20132;-60
2023/05/17 10:50:11;;;;;;;3.10;1.02;;;;;;;;;;5062716;28;20052;-61
2023/05/17 10:52:44;;;;;;;1.35;0.57;;;;;;;;;;5064410;28;20052;-61
2023/05/17 10:55:10;;;;;;;2.72;0.65;;;;;;;;;;5063618;28;20141;-60
2023/05/17 10:57:37;;;;;;;1.63;0.60;;;;;;;;;;5064726;28;20056;-61
2023/05/17 11:00:19;;;;;;;1.80;0.57;;;;;;;;;;5051395;28;20058;-61
2023/05/17 11:02:47;;;;;;;3.03;0.70;;;;;;;;;;5065286;28;20144;-61
2023/05/17 11:05:24;;;;;;;3.42;0.85;;;;;;;;;;5070052;28;20449;-60
2023/05/17 11:07:51;;;;;;;3.67;0.60;;;;;;;;;;5064792;28;20054;-60
2023/05/17 11:10:17;;;;;;;3.50;0.57;;;;;;;;;;5062185;28;20608;-60
2023/05/17 11:12:46;;;;;;;1.92;1.17;;;;;;;;;;5065265;28;20584;-60
2023/05/17 11:15:13;;;;;;;1.45;0.60;;;;;;;;;;5064383;28;20045;-61
2023/05/17 11:17:43;;;;;;;0.50;0.50;;;;;;;;;;5063919;28;20106;-61
2023/05/17 11:20:13;;;;;;;1.33;0.60;;;;;;;;;;5058696;28;20076;-61
2023/05/17 11:22:54;;;;;;;1.77;1.05;;;;;;;;;;5064077;28;20059;-61
2023/05/17 11:25:21;;;;;;;4.50;1.00;;;;;;;;;;5065191;28;20056;-60
2023/05/17 11:27:49;;;;;;;1.02;0.52;;;;;;;;;;5063594;28;20061;-61
2023/05/17 11:30:17;;;;;;;3.38;0.68;;;;;;;;;;5062894;28;20080;-61
2023/05/17 11:32:48;;;;;;;4.15;0.70;;;;;;;;;;5065017;28;20059;-60
2023/05/17 11:35:16;;;;;;;1.20;0.65;;;;;;;;;;5064063;28;20133;-61
2023/05/17 11:37:43;;;;;;;2.22;0.77;;;;;;;;;;5066289;28;20930;-61
2023/05/17 11:40:11;;;;;;;2.95;0.63;;;;;;;;;;5063979;28;20061;-60
2023/05/17 11:42:38;;;;;;;4.60;0.95;;;;;;;;;;5062637;28;20049;-61
2023/05/17 11:45:05;;;;;;;1.08;0.80;;;;;;;;;;5063584;28;20057;-59
2023/05/17 11:47:31;;;;;;;1.45;0.70;;;;;;;;;;5064197;28;20110;-62
2023/05/17 11:50:02;;;;;;;2.65;0.90;;;;;;;;;;5066905;28;20478;-60
2023/05/17 11:52:30;;;;;;;2.40;1.08;;;;;;;;;;5062751;28;20107;-61
2023/05/17 11:54:57;;;;;;;4.32;0.82;;;;;;;;;;5064362;28;20064;-61
2023/05/17 11:57:30;;;;;;;3.28;0.90;;;;;;;;;;5058827;28;20533;-61
2023/05/17 12:00:01;;;;;;;1.40;0.90;;;;;;;;;;5062075;28;20107;-61
2023/05/17 12:02:28;;;;;;;1.73;0.65;;;;;;;;;;5062557;28;20065;-61
2023/05/17 12:04:55;;;;;;;1.30;0.65;;;;;;;;;;5061518;28;20190;-59
2023/05/17 12:07:23;;;;;;;1.70;0.70;;;;;;;;;;5061333;28;20052;-60
2023/05/17 12:09:50;;;;;;;2.20;0.80;;;;;;;;;;5061917;28;20049;-61
2023/05/17 12:12:16;;;;;;;1.10;0.60;;;;;;;;;;5063117;28;20076;-61
2023/05/17 12:14:43;;;;;;;4.07;0.65;;;;;;;;;;5060479;28;20176;-60
2023/05/17 12:17:12;;;;;;;3.65;1.10;;;;;;;;;;5062928;28;20135;-61
2023/05/17 12:19:38;;;;;;;1.35;0.77;;;;;;;;;;5064684;28;20081;-61
2023/05/17 12:22:07;;;;;;;2.20;0.57;;;;;;;;;;5062714;28;20072;-60
2023/05/17 12:24:40;;;;;;;0.93;0.60;;;;;;;;;;5060668;28;20063;-60
2023/05/17 12:27:07;;;;;;;5.20;1.00;;;;;;;;;;5062355;28;20172;-60
2023/05/17 12:29:33;;;;;;;1.83;0.90;;;;;;;;;;5068682;28;20057;-61
2023/05/17 12:32:00;;;;;;;1.58;0.98;;;;;;;;;;5055940;28;20107;-60
2023/05/17 12:34:28;;;;;;;5.40;0.73;;;;;;;;;;5066183;28;20067;-61
2023/05/17 12:36:54;;;;;;;2.72;0.73;;;;;;;;;;5067386;28;20049;-60
2023/05/17 12:39:22;;;;;;;2.40;0.77;;;;;;;;;;5061980;28;20056;-60
2023/05/17 12:41:50;;;;;;;4.38;0.73;;;;;;;;;;5062705;28;20135;-60
2023/05/17 12:44:19;;;;;;;2.45;0.70;;;;;;;;;;5061199;28;20057;-60
2023/05/17 12:46:52;;;;;;;3.20;0.82;;;;;;;;;;5063048;28;20059;-61
2023/05/17 12:49:21;;;;;;;3.28;1.00;;;;;;;;;;5046718;28;20900;-60
2023/05/17 12:51:48;;;;;;;1.65;0.50;;;;;;;;;;5061650;28;20091;-37
2023/05/17 12:54:25;;;;;;;2.55;0.85;;;;;;;;;;5061612;28;20057;-57
2023/05/17 12:56:51;;;;;;;3.20;1.05;;;;;;;;;;5062681;28;20049;-56
2023/05/17 12:59:24;;;;;;;2.83;0.75;;;;;;;;;;5052313;28;20052;-56
2023/05/17 13:01:52;;;;;;;4.63;1.08;;;;;;;;;;5079150;28;21068;-57
2023/05/17 13:04:19;;;;;;;4.32;0.85;;;;;;;;;;5069399;28;20115;-59
2023/05/17 13:06:46;;;;;;;3.55;1.13;;;;;;;;;;5062291;28;20053;-58
2023/05/17 13:09:13;;;;;;;2.60;0.95;;;;;;;;;;5061096;28;20049;-59
2023/05/17 13:11:40;;;;;;;1.40;0.75;;;;;;;;;;5060868;28;20611;-57
2023/05/17 13:14:07;;;;;;;2.90;0.98;;;;;;;;;;5044440;28;20060;-54
2023/05/17 13:16:36;;;;;;;5.13;0.88;;;;;;;;;;5062485;28;20061;-57
2023/05/17 13:19:10;;;;;;;2.28;0.85;;;;;;;;;;5061739;28;20721;-58
2023/05/17 13:21:36;;;;;;;3.05;0.73;;;;;;;;;;5058172;28;20057;-55
2023/05/17 13:24:03;;;;;;;1.05;0.80;;;;;;;;;;5058063;28;20154;-57
2023/05/17 13:26:29;;;;;;;9.02;0.95;;;;;;;;;;5060835;28;20049;-59
2023/05/17 13:28:56;;;;;;;2.00;0.63;;;;;;;;;;5057740;28;20056;-59
2023/05/17 13:31:22;;;;;;;4.38;1.20;;;;;;;;;;5061154;28;20173;-59
2023/05/17 13:33:49;;;;;;;1.75;0.85;;;;;;;;;;5061472;28;20088;-58
2023/05/17 13:36:16;;;;;;;6.85;1.17;;;;;;;;;;5065419;28;20053;-59
2023/05/17 13:38:42;;;;;;;2.80;0.90;;;;;;;;;;5061839;28;20053;-59
2023/05/17 13:41:09;;;;;;;4.30;1.48;;;;;;;;;;5060261;28;20793;-43
2023/05/17 13:43:35;;;;;;;7.32;0.93;;;;;;;;;;5058107;28;20107;-42
2023/05/17 13:46:02;;;;;;;1.02;0.73;;;;;;;;;;5061615;28;20052;-60
2023/05/17 13:48:28;;;;;;;1.77;0.65;;;;;;;;;;5071947;28;20538;-61
2023/05/17 13:50:55;;;;;;;2.72;1.23;;;;;;;;;;5074095;28;20572;-61
2023/05/17 13:53:22;;;;;;;2.33;0.60;;;;;;;;;;5076171;28;20057;-60
2023/05/17 13:55:48;;;;;;;0.93;0.50;;;;;;;;;;5061661;28;20049;-62
2023/05/17 13:58:16;;;;;;;4.00;1.02;;;;;;;;;;5064810;28;20060;-62
2023/05/17 14:00:43;;;;;;;3.97;1.20;;;;;;;;;;5065376;28;20057;-62
2023/05/17 14:03:11;;;;;;;3.42;0.80;;;;;;;;;;5065717;28;20514;-62
2023/05/17 14:05:38;;;;;;;2.22;0.70;;;;;;;;;;5063737;28;20048;-62
2023/05/17 14:08:05;;;;;;;3.80;1.00;;;;;;;;;;5064761;28;20053;-62
2023/05/17 14:10:31;;;;;;;5.45;0.75;;;;;;;;;;5065929;28;20053;-62
2023/05/17 14:12:58;;;;;;;3.83;1.27;;;;;;;;;;5065613;28;20803;-62
2023/05/17 14:15:26;;;;;;;3.75;1.00;;;;;;;;;;5065058;28;20128;-61
2023/05/17 14:17:52;;;;;;;2.80;0.82;;;;;;;;;;5064240;28;20517;-62
2023/05/17 14:20:19;;;;;;;2.20;0.73;;;;;;;;;;5061798;28;20144;-61
2023/05/17 14:22:46;;;;;;;2.78;0.73;;;;;;;;;;5065458;28;20087;-62
2023/05/17 14:25:13;;;;;;;0.93;0.82;;;;;;;;;;5065530;28;20052;-62
2023/05/17 14:27:39;;;;;;;5.40;1.05;;;;;;;;;;5063874;28;20049;-62
2023/05/17 14:30:06;;;;;;;1.50;0.90;;;;;;;;;;5057508;28;20046;-63
2023/05/17 14:32:34;;;;;;;2.78;0.80;;;;;;;;;;5062746;28;20048;-63
2023/05/17 14:35:00;;;;;;;1.80;0.75;;;;;;;;;;5065728;28;20057;-61
2023/05/17 14:37:27;;;;;;;3.47;0.90;;;;;;;;;;5064958;28;20064;-62
2023/05/17 14:39:53;;;;;;;1.05;0.90;;;;;;;;;;5064665;28;20454;-62
2023/05/17 14:42:32;;;;;;;2.47;0.50;;;;;;;;;;5063110;28;20112;-62
2023/05/17 14:44:58;;;;;;;2.03;0.90;;;;;;;;;;5063094;28;20045;-60